MAPA DE AEROPUERTO

INFORMACIÓN METAR y TAF

METAR FOR ESGG
ADDS - METARS form results

(1602 UTC 27 February 2021)
Data provider http://aviationweather.gov/metar/data/
 
METAR text: ESGG 271550Z 22008KT 9999 SCT006 04/02 Q1032 R21/09//95
Conditions at: ESGG (GOTEBORG/LANDVET, SE) observed 1550 UTC 27 February 2021
Temperature: 4.0°C (39°F)
Dewpoint: 2.0°C (36°F) [RH = 87%]
Pressure (altimeter): 30.47 inches Hg (1032.0 mb)
Winds: from the SW (220 degrees) at 9 MPH (8 knots; 4.1 m/s)
Visibility: 6 or more miles (10+ km)
Ceiling: at least 12,000 feet AGL
Clouds: scattered clouds at 600 feet AGL
Weather: no significant weather observed at this time

METAR text: ESGG 271520Z 23008KT CAVOK 04/01 Q1032 R21/09//95
Conditions at: ESGG (GOTEBORG/LANDVET, SE) observed 1520 UTC 27 February 2021
Temperature: 4.0°C (39°F)
Dewpoint: 1.0°C (34°F) [RH = 81%]
Pressure (altimeter): 30.47 inches Hg (1032.0 mb)
Winds: from the SW (230 degrees) at 9 MPH (8 knots; 4.1 m/s)
Visibility: 6 or more miles (10+ km)
Ceiling: ceiling and visibility are OK
Clouds: unknown
Weather: no significant weather observed at this time

Forecast for: COR
Text: TAF COR ESGG 271240Z 2712/2812 VRB02KT CAVOK
Forecast period: 1200 to 1700 UTC 27 February 2021
Forecast type: FROM: standard forecast or significant change
Winds: variable direction winds at 2 MPH (2 knots; 1.0 m/s)
Visibility: 6 or more miles (10+ km)
Ceiling: unknown
Clouds: missing
Weather: NSW  (no significant weather)
Text: PROB40 2715/2717 2000 BR BKN004
Forecast period: 1500 to 1700 UTC 27 February 2021
Forecast type: PROBABLE: 40 percent likelihood of the following during this time
Visibility: 1.24 miles (2.00 km)
Ceiling: 400 feet AGL
Clouds: broken clouds at 400 feet AGL
Weather: BR  (mist)
Text: BECMG 2717/2719 0300 FG VV002
Forecast period: 1700 UTC 27 February 2021 to 0900 UTC 28 February 2021
Forecast type: BECOMING: Conditions expected to become as follows by 1900 UTC 27 February 2021
Winds: variable direction winds at 2 MPH (2 knots; 1.0 m/s)
Visibility: 0.19 miles (0.31 km)
Ceiling: indefinite ceiling with vertical visibility of 200 feet AGL
Clouds: obscured sky
Weather: FG  (fog)
Text: PROB40 2719/2809 2000 BR BKN005
Forecast period: 1900 UTC 27 February 2021 to 0900 UTC 28 February 2021
Forecast type: PROBABLE: 40 percent likelihood of the following during this time
Visibility: 1.24 miles (2.00 km)
Ceiling: 500 feet AGL
Clouds: broken clouds at 500 feet AGL
Weather: BR  (mist)
Text: BECMG 2809/2812 9999 NSW FEW006
Forecast period: 0900 to 1200 UTC 28 February 2021
Forecast type: BECOMING: Conditions expected to become as follows by 1200 UTC 28 February 2021
Winds: variable direction winds at 2 MPH (2 knots; 1.0 m/s)
Visibility: 6 or more miles (10+ km)
Ceiling: at least 12,000 feet AGL
Clouds: few clouds at 600 feet AGL
Weather: NSW  (no significant weather)